Time;durP1;ratioP1;P1;durP2;ratioP2;P2;SDS_P1;SDS_P2;PMS_P1;PMS_P2;Temp;Humidity;BMP_temperature;BMP_pressure;BME280_temperature;BME280_humidity;BME280_pressure;Samples;Min_cycle;Max_cycle;Signal;HPM_P1;HPM_P2
2022/10/01 00:01:07;;;;;;;9.85;7.90;;;10.80;99.90;;;;;;5046027;28;20099;-38
2022/10/01 00:03:34;;;;;;;7.82;6.47;;;11.10;99.90;;;;;;5045756;28;20043;-38
2022/10/01 00:06:18;;;;;;;8.70;7.88;;;11.10;99.90;;;;;;5045863;28;20483;-38
2022/10/01 00:08:47;;;;;;;8.82;7.13;;;10.50;99.90;;;;;;5045840;28;20045;-37
2022/10/01 00:11:22;;;;;;;10.15;8.05;;;11.00;99.90;;;;;;5046040;28;20040;-38
2022/10/01 00:13:49;;;;;;;11.55;8.30;;;10.50;99.90;;;;;;5041081;28;20064;-38
2022/10/01 00:16:24;;;;;;;9.98;7.95;;;10.70;99.90;;;;;;5046091;28;20048;-38
2022/10/01 00:18:52;;;;;;;11.95;8.48;;;10.50;99.90;;;;;;5046771;28;20439;-38
2022/10/01 00:21:20;;;;;;;10.60;8.65;;;11.00;99.90;;;;;;5047162;28;20414;-38
2022/10/01 00:23:47;;;;;;;11.60;9.55;;;10.40;99.90;;;;;;5046626;28;20044;-38
2022/10/01 00:26:14;;;;;;;14.73;9.65;;;10.90;99.90;;;;;;5047013;28;20368;-38
2022/10/01 00:28:41;;;;;;;15.07;10.98;;;11.10;99.90;;;;;;5046238;28;20041;-38
2022/10/01 00:31:08;;;;;;;12.70;10.75;;;10.60;99.90;;;;;;5046080;28;20491;-38
2022/10/01 00:33:35;;;;;;;14.10;10.57;;;11.20;99.90;;;;;;5045738;28;20120;-38
2022/10/01 00:36:00;;;;;;;16.67;11.55;;;10.70;99.90;;;;;;5046432;28;20116;-38
2022/10/01 00:38:27;;;;;;;15.38;11.43;;;10.20;99.90;;;;;;5046398;28;20133;-38
2022/10/01 00:40:53;;;;;;;14.82;12.10;;;;;;;;;;5045906;28;20052;-38
2022/10/01 00:43:26;;;;;;;13.05;11.02;;;10.10;99.90;;;;;;5045467;28;20048;-38
2022/10/01 00:45:54;;;;;;;14.60;11.00;;;10.20;99.90;;;;;;5045243;28;20040;-38
2022/10/01 00:48:22;;;;;;;14.52;11.38;;;10.50;99.90;;;;;;5045227;28;20120;-38
2022/10/01 00:50:48;;;;;;;16.50;12.93;;;10.60;99.90;;;;;;5045537;28;20121;-38
2022/10/01 00:53:16;;;;;;;23.05;13.57;;;10.70;99.90;;;;;;5044320;28;20124;-37
2022/10/01 00:55:50;;;;;;;21.50;14.55;;;10.50;99.90;;;;;;5044220;28;20045;-38
2022/10/01 00:58:18;;;;;;;15.15;11.93;;;10.50;99.90;;;;;;5045826;28;20060;-38
2022/10/01 01:00:43;;;;;;;14.10;12.20;;;10.10;99.90;;;;;;5045399;28;20072;-38
2022/10/01 01:03:10;;;;;;;15.00;12.38;;;10.10;99.90;;;;;;5045833;28;20539;-38
2022/10/01 01:05:35;;;;;;;14.65;11.82;;;10.30;99.90;;;;;;5045074;28;20560;-38
2022/10/01 01:08:02;;;;;;;17.15;12.35;;;10.80;99.90;;;;;;5044961;28;20040;-38
2022/10/01 01:10:53;;;;;;;17.55;13.38;;;10.40;99.90;;;;;;5045756;28;20372;-38
2022/10/01 01:13:49;;;;;;;18.73;12.13;;;10.20;99.90;;;;;;5045340;28;20075;-38
2022/10/01 01:16:37;;;;;;;18.85;12.50;;;;;;;;;;5007676;28;20201;-38
2022/10/01 01:19:49;;;;;;;23.05;14.27;;;10.00;99.90;;;;;;5045921;28;20049;-38
2022/10/01 01:22:20;;;;;;;19.60;13.57;;;10.00;99.90;;;;;;5036452;28;20322;-38
2022/10/01 01:24:49;;;;;;;20.98;13.00;;;10.30;99.90;;;;;;5045020;28;20388;-38
2022/10/01 01:27:20;;;;;;;16.98;13.35;;;10.00;99.90;;;;;;5044841;28;20040;-38
2022/10/01 01:30:02;;;;;;;19.13;13.45;;;9.90;99.90;;;;;;5044896;28;20123;-38
2022/10/01 01:32:45;;;;;;;19.08;14.10;;;10.00;99.90;;;;;;5045200;28;20379;-38
2022/10/01 01:35:18;;;;;;;22.98;15.48;;;10.00;99.90;;;;;;5044800;28;20056;-38
2022/10/01 01:37:51;;;;;;;22.63;14.35;;;10.80;99.90;;;;;;5045095;28;20503;-38
2022/10/01 01:40:19;;;;;;;26.17;16.27;;;10.30;99.90;;;;;;5045299;28;20080;-38
2022/10/01 01:42:47;;;;;;;21.33;15.27;;;10.00;99.90;;;;;;5044914;28;20095;-39
2022/10/01 01:45:19;;;;;;;25.05;16.48;;;10.10;99.90;;;;;;5044700;28;20071;-39
2022/10/01 01:47:46;;;;;;;18.00;14.65;;;10.00;99.90;;;;;;5044957;28;20421;-39
2022/10/01 01:50:14;;;;;;;18.02;14.13;;;10.40;99.90;;;;;;5045970;28;20044;-38
2022/10/01 01:52:40;;;;;;;18.98;13.35;;;10.30;99.90;;;;;;5045106;28;20045;-38
2022/10/01 01:55:07;;;;;;;21.20;15.63;;;10.80;99.90;;;;;;5045118;28;20044;-38
2022/10/01 01:57:41;;;;;;;20.92;15.13;;;10.00;99.90;;;;;;5044255;28;20064;-39
2022/10/01 02:00:08;;;;;;;20.90;15.43;;;10.40;99.90;;;;;;5044410;28;20558;-38
2022/10/01 02:02:38;;;;;;;26.13;16.58;;;10.00;99.90;;;;;;5044954;28;20154;-38
2022/10/01 02:05:14;;;;;;;22.05;15.00;;;10.50;99.90;;;;;;5045200;28;20103;-39
2022/10/01 02:07:53;;;;;;;20.77;14.73;;;10.60;99.90;;;;;;5045280;28;20115;-39
2022/10/01 02:10:43;;;;;;;19.05;13.52;;;10.30;99.90;;;;;;5045332;28;20041;-39
2022/10/01 02:13:34;;;;;;;27.42;15.80;;;10.00;99.90;;;;;;5044731;28;20063;-38
2022/10/01 02:16:03;;;;;;;19.45;13.65;;;;;;;;;;5045212;28;20076;-38
2022/10/01 02:18:52;;;;;;;26.70;15.77;;;9.90;99.90;;;;;;5046790;28;20120;-38
2022/10/01 02:21:52;;;;;;;19.13;14.02;;;10.30;99.90;;;;;;5048574;28;20792;-38
2022/10/01 02:24:24;;;;;;;22.90;16.02;;;9.90;99.90;;;;;;5046903;28;20099;-38
2022/10/01 02:26:51;;;;;;;20.77;14.50;;;9.90;99.90;;;;;;5048668;28;20044;-39
2022/10/01 02:29:20;;;;;;;19.40;14.73;;;10.70;99.90;;;;;;5048833;28;20049;-38
2022/10/01 02:31:48;;;;;;;25.08;15.75;;;10.30;99.90;;;;;;5048677;28;20141;-38
2022/10/01 02:34:16;;;;;;;22.58;14.73;;;10.10;99.90;;;;;;5048020;28;20436;-38
2022/10/01 02:36:44;;;;;;;28.23;16.88;;;10.30;99.90;;;;;;5047972;28;20044;-39
2022/10/01 02:39:12;;;;;;;23.10;14.60;;;10.40;99.90;;;;;;5046978;28;20382;-38
2022/10/01 02:41:40;;;;;;;19.80;14.70;;;10.40;99.90;;;;;;5048538;28;20049;-39
2022/10/01 02:44:14;;;;;;;15.60;12.15;;;10.10;99.90;;;;;;5047769;28;20092;-39
2022/10/01 02:47:04;;;;;;;48.53;18.73;;;10.00;99.90;;;;;;5048510;28;20048;-39
2022/10/01 02:49:30;;;;;;;23.02;13.80;;;10.00;99.90;;;;;;5047747;28;20040;-39
2022/10/01 02:52:17;;;;;;;20.73;14.30;;;10.40;99.90;;;;;;5048008;28;20494;-38
2022/10/01 02:54:52;;;;;;;18.88;13.07;;;10.00;99.90;;;;;;5047530;28;20497;-38
2022/10/01 02:57:27;;;;;;;27.25;15.35;;;10.30;99.90;;;;;;5047864;28;20041;-39
2022/10/01 02:59:56;;;;;;;21.67;14.23;;;10.30;99.90;;;;;;5046430;28;20120;-38
2022/10/01 03:02:26;;;;;;;19.63;12.65;;;11.10;99.90;;;;;;5048005;28;20084;-39
2022/10/01 03:04:58;;;;;;;16.23;11.82;;;10.20;99.90;;;;;;5047547;28;20051;-39
2022/10/01 03:07:28;;;;;;;18.80;14.02;;;10.40;99.90;;;;;;5048169;28;20107;-39
2022/10/01 03:09:55;;;;;;;19.30;13.00;;;10.50;99.90;;;;;;5047754;28;20049;-39
2022/10/01 03:12:22;;;;;;;16.40;11.90;;;10.50;99.90;;;;;;5047630;28;20045;-38
2022/10/01 03:14:48;;;;;;;16.92;11.88;;;10.40;99.90;;;;;;5046624;28;20068;-38
2022/10/01 03:17:15;;;;;;;20.65;12.25;;;10.80;99.90;;;;;;5048239;28;20445;-39
2022/10/01 03:19:41;;;;;;;18.98;11.88;;;10.20;99.90;;;;;;5047874;28;20045;-38
2022/10/01 03:22:08;;;;;;;20.65;13.07;;;10.20;99.90;;;;;;5047395;28;20044;-38
2022/10/01 03:24:33;;;;;;;15.48;11.30;;;10.70;99.90;;;;;;5047235;28;20056;-39
2022/10/01 03:27:00;;;;;;;21.80;12.48;;;10.50;99.90;;;;;;5047041;28;20063;-39
2022/10/01 03:29:25;;;;;;;18.33;12.13;;;10.50;99.90;;;;;;5045902;28;20217;-38
2022/10/01 03:31:52;;;;;;;16.33;11.63;;;10.50;99.90;;;;;;5047237;28;20487;-39
2022/10/01 03:34:18;;;;;;;14.43;10.55;;;10.40;99.90;;;;;;5047569;28;20045;-38
2022/10/01 03:36:44;;;;;;;23.63;13.32;;;10.20;99.90;;;;;;5047824;28;20394;-39
2022/10/01 03:39:10;;;;;;;23.23;13.35;;;10.60;99.90;;;;;;5046802;28;20052;-38
2022/10/01 03:41:36;;;;;;;15.75;10.45;;;10.50;99.90;;;;;;5047334;28;20041;-38
2022/10/01 03:44:03;;;;;;;20.13;11.80;;;10.60;99.90;;;;;;5046545;28;20049;-39
2022/10/01 03:46:29;;;;;;;24.95;13.80;;;10.50;99.90;;;;;;5046871;28;20051;-39
2022/10/01 03:48:56;;;;;;;17.73;10.65;;;10.60;99.90;;;;;;5046864;28;20570;-39
2022/10/01 03:51:22;;;;;;;15.35;9.88;;;10.80;99.90;;;;;;5047431;28;20037;-38
2022/10/01 03:53:48;;;;;;;23.10;11.50;;;10.50;99.90;;;;;;5045652;28;20390;-38
2022/10/01 03:56:14;;;;;;;14.80;9.90;;;11.30;99.90;;;;;;5046800;28;20171;-38
2022/10/01 03:58:40;;;;;;;11.45;8.10;;;10.60;99.90;;;;;;5046896;28;20045;-39
2022/10/01 04:01:06;;;;;;;17.50;10.15;;;10.60;99.90;;;;;;5047092;28;20098;-39
2022/10/01 04:03:31;;;;;;;10.95;7.43;;;10.60;99.90;;;;;;5046732;28;20135;-39
2022/10/01 04:05:57;;;;;;;15.00;7.78;;;10.30;99.90;;;;;;5046648;28;20393;-39
2022/10/01 04:08:23;;;;;;;11.45;7.35;;;10.60;99.90;;;;;;5047078;28;20391;-39
2022/10/01 04:10:49;;;;;;;9.63;7.13;;;10.60;99.90;;;;;;5045659;28;20072;-39
2022/10/01 04:13:15;;;;;;;13.32;7.28;;;10.80;99.90;;;;;;5047061;28;20083;-39
2022/10/01 04:15:41;;;;;;;13.57;7.93;;;10.50;99.90;;;;;;5046912;28;20046;-39
2022/10/01 04:18:07;;;;;;;12.00;7.55;;;10.70;99.90;;;;;;5045635;28;20103;-39
2022/10/01 04:20:35;;;;;;;8.75;6.38;;;11.40;99.90;;;;;;5046820;28;20120;-39
2022/10/01 04:23:01;;;;;;;10.52;6.60;;;10.60;99.90;;;;;;5046421;28;20056;-39
2022/10/01 04:25:27;;;;;;;16.88;8.23;;;11.30;99.90;;;;;;5046543;28;20037;-38
2022/10/01 04:28:01;;;;;;;11.98;7.25;;;10.30;99.90;;;;;;5046244;28;20071;-39
2022/10/01 04:30:30;;;;;;;11.95;8.13;;;10.30;99.90;;;;;;5045929;28;20037;-39
2022/10/01 04:32:55;;;;;;;12.38;7.20;;;10.70;99.90;;;;;;5046920;28;20063;-39
2022/10/01 04:35:22;;;;;;;9.85;6.97;;;10.70;99.90;;;;;;5046424;28;20487;-39
2022/10/01 04:37:54;;;;;;;17.60;9.27;;;10.60;99.90;;;;;;5047080;28;20075;-39
2022/10/01 04:40:19;;;;;;;11.30;7.60;;;10.30;99.90;;;;;;5046306;28;20142;-39
2022/10/01 04:42:46;;;;;;;16.70;9.30;;;11.40;99.90;;;;;;5046409;28;20605;-39
2022/10/01 04:45:12;;;;;;;10.13;6.40;;;10.90;99.90;;;;;;5046243;28;20048;-39
2022/10/01 04:47:46;;;;;;;13.32;8.15;;;10.30;99.90;;;;;;5046375;28;20048;-39
2022/10/01 04:50:11;;;;;;;18.35;9.00;;;11.30;99.90;;;;;;5046411;28;20052;-39
2022/10/01 04:52:37;;;;;;;12.90;7.28;;;10.40;99.90;;;;;;5045973;28;20049;-39
2022/10/01 04:55:03;;;;;;;11.35;6.80;;;10.50;99.90;;;;;;5045869;28;20047;-39
2022/10/01 04:57:28;;;;;;;8.25;6.03;;;10.20;99.90;;;;;;5045662;28;20076;-39
2022/10/01 04:59:54;;;;;;;9.55;6.35;;;11.20;99.90;;;;;;5045718;28;20451;-39
2022/10/01 05:02:20;;;;;;;24.58;9.93;;;10.90;99.90;;;;;;5045634;28;20102;-39
2022/10/01 05:04:46;;;;;;;20.70;9.13;;;10.70;99.90;;;;;;5045316;28;20041;-39
2022/10/01 05:07:12;;;;;;;14.40;6.63;;;10.40;99.90;;;;;;5045643;28;20552;-39
2022/10/01 05:09:37;;;;;;;9.93;5.88;;;10.90;99.90;;;;;;5045400;28;20045;-39
2022/10/01 05:12:03;;;;;;;12.30;6.30;;;10.90;99.90;;;;;;5044501;28;20083;-39
2022/10/01 05:14:30;;;;;;;13.90;6.53;;;10.90;99.90;;;;;;5043283;28;20060;-39
2022/10/01 05:16:55;;;;;;;13.70;6.88;;;10.80;99.90;;;;;;5045674;28;20580;-40
2022/10/01 05:19:21;;;;;;;20.50;8.43;;;10.90;99.90;;;;;;5045161;28;20132;-39
2022/10/01 05:21:47;;;;;;;20.45;7.57;;;10.90;99.90;;;;;;5045659;28;20048;-41
2022/10/01 05:24:13;;;;;;;16.55;7.75;;;10.80;99.90;;;;;;5045154;28;20487;-40
2022/10/01 05:26:38;;;;;;;14.18;7.75;;;10.80;99.90;;;;;;5045648;28;20453;-39
2022/10/01 05:29:04;;;;;;;9.25;6.35;;;10.80;99.90;;;;;;5044845;28;20517;-39
2022/10/01 05:31:31;;;;;;;15.32;8.00;;;11.00;99.90;;;;;;5043724;28;20041;-41
2022/10/01 05:33:57;;;;;;;13.75;7.25;;;11.10;99.90;;;;;;5045030;28;20399;-40
2022/10/01 05:36:23;;;;;;;16.25;8.55;;;10.80;99.90;;;;;;5045608;28;20051;-40
2022/10/01 05:38:51;;;;;;;10.05;6.80;;;10.90;99.90;;;;;;5045197;28;20045;-40
2022/10/01 05:41:17;;;;;;;25.80;10.65;;;11.20;99.90;;;;;;5045092;28;20071;-40
2022/10/01 05:43:43;;;;;;;25.35;9.48;;;11.00;99.90;;;;;;5044727;28;20457;-40
2022/10/01 05:46:09;;;;;;;16.10;8.73;;;11.00;99.90;;;;;;5042940;28;20041;-42
2022/10/01 05:48:36;;;;;;;15.95;9.18;;;11.00;99.90;;;;;;5043054;28;20049;-40
2022/10/01 05:51:05;;;;;;;23.35;10.52;;;11.10;99.90;;;;;;5045150;28;20490;-41
2022/10/01 05:53:31;;;;;;;30.60;12.27;;;11.10;99.90;;;;;;5047450;28;20045;-39
2022/10/01 05:56:01;;;;;;;22.05;11.05;;;11.00;99.90;;;;;;5048495;28;20556;-39
2022/10/01 05:58:26;;;;;;;29.00;12.45;;;11.10;99.90;;;;;;5048118;28;20045;-39
2022/10/01 06:00:54;;;;;;;19.90;10.30;;;10.80;99.90;;;;;;5047935;28;20056;-39
2022/10/01 06:03:20;;;;;;;17.75;10.00;;;11.00;99.90;;;;;;5048556;28;20053;-39
2022/10/01 06:05:46;;;;;;;23.25;11.35;;;11.90;99.90;;;;;;5048850;28;20574;-39
2022/10/01 06:08:12;;;;;;;16.67;9.70;;;11.70;99.90;;;;;;5049073;28;20048;-38
2022/10/01 06:10:38;;;;;;;33.05;13.95;;;11.20;99.90;;;;;;5048837;28;20056;-39
2022/10/01 06:13:04;;;;;;;15.65;10.07;;;10.80;99.90;;;;;;5048803;28;20065;-38
2022/10/01 06:15:38;;;;;;;26.40;13.75;;;11.50;99.90;;;;;;5048271;28;20049;-38
2022/10/01 06:18:08;;;;;;;17.52;11.95;;;11.70;99.90;;;;;;5049100;28;20044;-39
2022/10/01 06:20:34;;;;;;;39.95;15.02;;;11.10;99.90;;;;;;5048664;28;20049;-39
2022/10/01 06:23:00;;;;;;;45.90;16.30;;;10.90;99.90;;;;;;5048760;28;20045;-39
2022/10/01 06:25:29;;;;;;;29.58;14.55;;;11.00;99.90;;;;;;5048868;28;20048;-39
2022/10/01 06:27:56;;;;;;;19.63;12.15;;;;;;;;;;5049074;28;20087;-39
2022/10/01 06:30:30;;;;;;;21.42;13.48;;;11.30;99.90;;;;;;5048315;28;20044;-40
2022/10/01 06:33:03;;;;;;;23.48;13.43;;;11.70;99.90;;;;;;5048577;28;20063;-40
2022/10/01 06:35:30;;;;;;;25.33;13.88;;;12.20;99.90;;;;;;5048113;28;20045;-40
2022/10/01 06:37:56;;;;;;;28.45;13.43;;;11.90;99.90;;;;;;5048686;28;20450;-40
2022/10/01 06:40:22;;;;;;;28.65;14.43;;;11.90;99.90;;;;;;5047962;28;20044;-40
2022/10/01 06:42:50;;;;;;;26.23;14.88;;;11.40;99.90;;;;;;5047071;28;20083;-41
2022/10/01 06:45:17;;;;;;;21.42;12.95;;;12.20;99.90;;;;;;5047940;28;20076;-40
2022/10/01 06:47:52;;;;;;;42.90;17.98;;;12.00;99.90;;;;;;5048395;28;20180;-40
2022/10/01 06:50:17;;;;;;;43.88;17.27;;;11.40;99.90;;;;;;5048248;28;20057;-40
2022/10/01 06:52:49;;;;;;;48.33;18.83;;;11.90;99.90;;;;;;5048590;28;20748;-40
2022/10/01 06:55:30;;;;;;;39.35;16.30;;;11.90;99.90;;;;;;5048831;28;20563;-41
2022/10/01 06:58:16;;;;;;;29.02;16.00;;;11.60;99.90;;;;;;5048229;28;20260;-41
2022/10/01 07:00:43;;;;;;;45.65;18.67;;;12.10;99.90;;;;;;5047394;28;20576;-40
2022/10/01 07:03:14;;;;;;;45.63;20.13;;;12.00;99.90;;;;;;5047830;28;20056;-40
2022/10/01 07:05:40;;;;;;;39.15;19.95;;;12.20;99.90;;;;;;5047479;28;20056;-40
2022/10/01 07:08:06;;;;;;;31.85;17.90;;;12.60;99.90;;;;;;5047512;28;20045;-40
2022/10/01 07:10:34;;;;;;;42.95;20.83;;;12.40;99.90;;;;;;5047140;28;20509;-40
2022/10/01 07:13:17;;;;;;;27.55;17.58;;;12.70;99.90;;;;;;5047556;28;20068;-40
2022/10/01 07:15:45;;;;;;;36.05;18.08;;;12.30;99.90;;;;;;5047831;28;20136;-40
2022/10/01 07:18:11;;;;;;;35.97;17.92;;;12.70;99.90;;;;;;5047930;28;20057;-40
2022/10/01 07:20:39;;;;;;;45.20;20.15;;;12.80;99.90;;;;;;5047153;28;20547;-41
2022/10/01 07:23:07;;;;;;;39.67;18.30;;;13.40;99.90;;;;;;5047222;28;20119;-40
2022/10/01 07:25:32;;;;;;;47.80;21.33;;;13.00;99.90;;;;;;5047143;28;20047;-40
2022/10/01 07:28:03;;;;;;;32.53;18.42;;;12.80;99.90;;;;;;5047567;28;20494;-41
2022/10/01 07:30:29;;;;;;;47.88;20.88;;;12.30;99.90;;;;;;5047034;28;20045;-41
2022/10/01 07:32:54;;;;;;;53.72;20.75;;;12.60;99.90;;;;;;5047664;28;20045;-41
2022/10/01 07:35:20;;;;;;;37.20;17.20;;;12.30;99.90;;;;;;5047728;28;20068;-40
2022/10/01 07:37:47;;;;;;;34.50;18.05;;;12.30;99.90;;;;;;5047491;28;20548;-41
2022/10/01 07:40:15;;;;;;;41.75;19.10;;;12.50;99.90;;;;;;5047628;28;20398;-40
2022/10/01 07:42:41;;;;;;;31.50;15.25;;;12.30;99.90;;;;;;5047440;28;20161;-41
2022/10/01 07:45:08;;;;;;;36.85;17.17;;;12.70;99.90;;;;;;5047025;28;20055;-42
2022/10/01 07:47:33;;;;;;;38.78;17.88;;;12.50;99.90;;;;;;5046577;28;20056;-40
2022/10/01 07:49:59;;;;;;;36.58;16.38;;;12.80;99.90;;;;;;5046408;28;20045;-40
2022/10/01 07:52:25;;;;;;;31.92;15.50;;;13.00;99.90;;;;;;5047105;28;20033;-40
2022/10/01 07:54:50;;;;;;;30.45;14.88;;;12.50;99.90;;;;;;5047232;28;20087;-42
2022/10/01 07:57:16;;;;;;;35.47;16.42;;;12.60;99.90;;;;;;5048103;28;20040;-40
2022/10/01 07:59:42;;;;;;;42.33;19.58;;;13.00;99.90;;;;;;5047724;28;20084;-40
2022/10/01 08:02:15;;;;;;;40.80;18.73;;;12.70;99.90;;;;;;5047369;28;20116;-40
2022/10/01 08:07:26;;;;;;;27.05;16.63;;;12.60;99.90;;;;;;5047295;28;20118;-40
2022/10/01 08:09:51;;;;;;;43.88;20.23;;;13.20;99.90;;;;;;5046434;28;20037;-39
2022/10/01 08:12:18;;;;;;;32.97;18.95;;;13.10;99.90;;;;;;5045822;28;20080;-41
2022/10/01 08:14:46;;;;;;;37.72;20.35;;;13.30;99.90;;;;;;5046431;28;20526;-40
2022/10/01 08:17:12;;;;;;;30.17;17.02;;;13.30;99.90;;;;;;5046324;28;20041;-39
2022/10/01 08:19:38;;;;;;;35.30;19.75;;;13.50;99.90;;;;;;5045938;28;20090;-39
2022/10/01 08:22:06;;;;;;;39.78;19.67;;;13.40;99.90;;;;;;5046237;28;20179;-40
2022/10/01 08:24:33;;;;;;;30.60;18.05;;;13.30;99.90;;;;;;5045812;28;20055;-40
2022/10/01 08:26:59;;;;;;;43.95;20.42;;;13.60;99.90;;;;;;5046445;28;20051;-40
2022/10/01 08:29:25;;;;;;;22.67;14.18;;;13.60;99.90;;;;;;5046341;28;20037;-40
2022/10/01 08:31:51;;;;;;;30.00;15.93;;;13.90;99.90;;;;;;5045926;28;20041;-41
2022/10/01 08:34:16;;;;;;;24.42;13.80;;;14.10;99.90;;;;;;5046228;28;20045;-41
2022/10/01 08:36:42;;;;;;;37.25;14.10;;;14.20;99.90;;;;;;5046458;28;20081;-39
2022/10/01 08:39:09;;;;;;;24.60;13.35;;;14.60;99.90;;;;;;5046619;28;20402;-39
2022/10/01 08:42:04;;;;;;;23.67;12.30;;;14.30;99.90;;;;;;5047015;28;20041;-39
2022/10/01 08:44:39;;;;;;;20.52;9.88;;;14.30;99.90;;;;;;5045476;28;20061;-39
2022/10/01 08:47:12;;;;;;;26.30;12.98;;;14.50;99.90;;;;;;5046168;28;20106;-39
2022/10/01 08:49:50;;;;;;;20.63;11.27;;;14.70;99.90;;;;;;5046614;28;20041;-39
2022/10/01 08:52:21;;;;;;;28.73;13.55;;;14.80;99.90;;;;;;5045903;28;20391;-39
2022/10/01 08:54:56;;;;;;;17.95;9.60;;;15.00;99.90;;;;;;5045801;28;20036;-39
2022/10/01 08:57:26;;;;;;;22.63;10.95;;;15.20;99.90;;;;;;5046130;28;20508;-39
2022/10/01 09:00:01;;;;;;;20.73;11.35;;;15.40;99.90;;;;;;5046106;28;20470;-39
2022/10/01 09:02:38;;;;;;;19.17;9.35;;;15.50;99.90;;;;;;5045546;28;20125;-39
2022/10/01 09:05:09;;;;;;;22.63;9.63;;;15.60;99.90;;;;;;5046121;28;20095;-41
2022/10/01 09:07:38;;;;;;;19.50;8.05;;;15.60;99.90;;;;;;5045826;28;20041;-39
2022/10/01 09:10:13;;;;;;;21.08;6.63;;;15.60;99.90;;;;;;5046076;28;20045;-39
2022/10/01 09:12:53;;;;;;;21.80;7.15;;;15.70;99.90;;;;;;5046106;28;20505;-39
2022/10/01 09:15:28;;;;;;;17.45;6.25;;;15.80;99.90;;;;;;5045892;28;20128;-39
2022/10/01 09:17:57;;;;;;;14.98;4.88;;;15.90;99.90;;;;;;5045360;28;20052;-39
2022/10/01 09:20:27;;;;;;;20.70;5.63;;;16.00;99.90;;;;;;5045335;28;20041;-39
2022/10/01 09:23:15;;;;;;;13.63;3.45;;;16.10;99.90;;;;;;5044568;28;20123;-39
2022/10/01 09:25:43;;;;;;;17.88;4.18;;;16.00;99.90;;;;;;5045399;28;20049;-39
2022/10/01 09:28:17;;;;;;;17.85;3.58;;;16.00;99.90;;;;;;5045075;28;20037;-39
2022/10/01 09:31:17;;;;;;;17.20;3.13;;;15.90;99.90;;;;;;5044988;28;20048;-39
2022/10/01 09:34:10;;;;;;;17.73;3.15;;;15.70;99.90;;;;;;5042421;28;20499;-39
2022/10/01 09:36:45;;;;;;;11.13;2.22;;;15.80;99.90;;;;;;5045024;28;20486;-39
2022/10/01 09:39:24;;;;;;;18.05;3.03;;;16.80;99.90;;;;;;5045690;28;20154;-40
2022/10/01 09:41:50;;;;;;;12.52;2.45;;;15.90;99.90;;;;;;5045426;28;20040;-39
2022/10/01 09:44:22;;;;;;;18.27;2.67;;;16.00;99.90;;;;;;5045641;28;20056;-39
2022/10/01 09:46:47;;;;;;;13.80;2.25;;;16.20;99.90;;;;;;5044458;28;20422;-38
2022/10/01 09:49:32;;;;;;;9.88;1.92;;;16.40;99.90;;;;;;5045289;28;20045;-39
2022/10/01 09:52:05;;;;;;;14.77;2.20;;;16.50;99.90;;;;;;5044907;28;20275;-38
2022/10/01 09:54:38;;;;;;;13.43;1.60;;;16.90;99.90;;;;;;5044985;28;20068;-38
2022/10/01 09:57:08;;;;;;;12.57;1.85;;;16.80;99.90;;;;;;5044679;28;20075;-38
2022/10/01 10:00:03;;;;;;;10.93;1.77;;;16.90;99.90;;;;;;5045142;28;20072;-38
2022/10/01 10:02:40;;;;;;;12.80;1.73;;;16.70;99.90;;;;;;5045096;28;20036;-39
2022/10/01 10:05:18;;;;;;;5.30;0.80;;;16.40;99.90;;;;;;5045239;28;20059;-38
2022/10/01 10:07:56;;;;;;;9.55;1.10;;;16.30;99.90;;;;;;5044698;28;20044;-39
2022/10/01 10:10:27;;;;;;;6.85;1.10;;;16.10;99.90;;;;;;5045006;28;20036;-38
2022/10/01 10:13:00;;;;;;;9.90;1.40;;;16.40;99.90;;;;;;5042607;28;20391;-38
2022/10/01 10:15:30;;;;;;;9.85;0.80;;;16.40;99.90;;;;;;5024752;28;20511;-38
2022/10/01 10:18:05;;;;;;;9.38;1.05;;;16.30;99.90;;;;;;5023950;28;20057;-38
2022/10/01 10:20:42;;;;;;;8.25;0.88;;;16.20;99.90;;;;;;5025349;28;20121;-39
2022/10/01 10:23:17;;;;;;;12.13;1.50;;;16.10;99.90;;;;;;5025132;28;20460;-38
2022/10/01 10:25:59;;;;;;;6.78;0.80;;;16.10;99.90;;;;;;5025100;28;20543;-38
2022/10/01 10:28:29;;;;;;;8.68;0.80;;;16.20;99.90;;;;;;5025238;28;20045;-39
2022/10/01 10:30:56;;;;;;;4.75;0.40;;;16.00;99.90;;;;;;5025471;28;20063;-40
2022/10/01 10:33:25;;;;;;;7.82;0.90;;;15.50;99.90;;;;;;5023927;28;20402;-40
2022/10/01 10:36:03;;;;;;;9.05;0.60;;;15.30;99.90;;;;;;5024007;28;20060;-40
2022/10/01 10:38:33;;;;;;;7.70;0.50;;;15.00;99.90;;;;;;5025200;28;20045;-40
2022/10/01 10:41:02;;;;;;;4.53;0.57;;;14.60;99.90;;;;;;5028503;28;20037;-41
2022/10/01 10:43:33;;;;;;;10.80;0.50;;;14.90;99.90;;;;;;5028562;28;20167;-40
2022/10/01 10:45:59;;;;;;;6.93;0.77;;;14.10;99.90;;;;;;5028652;28;20493;-40
2022/10/01 10:48:35;;;;;;;9.38;1.35;;;13.90;99.90;;;;;;5028784;28;20041;-41
2022/10/01 10:51:03;;;;;;;6.15;0.93;;;13.90;99.90;;;;;;5028456;28;20033;-40
2022/10/01 10:53:39;;;;;;;6.25;0.80;;;13.80;99.90;;;;;;5028451;28;20040;-41
2022/10/01 10:56:06;;;;;;;10.82;1.52;;;14.50;99.90;;;;;;5028090;28;20077;-41
2022/10/01 10:58:38;;;;;;;9.77;1.20;;;13.70;99.90;;;;;;5028260;28;20056;-40
2022/10/01 11:01:09;;;;;;;8.98;1.33;;;13.60;99.90;;;;;;5028435;28;20072;-40
2022/10/01 11:03:40;;;;;;;8.48;0.70;;;13.50;99.90;;;;;;5028449;28;20053;-40
2022/10/01 11:06:11;;;;;;;15.57;1.50;;;13.70;99.90;;;;;;5028599;28;20061;-41
2022/10/01 11:08:38;;;;;;;8.68;1.08;;;13.30;99.90;;;;;;5028456;28;20374;-40
2022/10/01 11:11:34;;;;;;;4.03;0.63;;;13.20;99.90;;;;;;5028185;28;20037;-41
2022/10/01 11:14:28;;;;;;;10.13;0.70;;;13.20;99.90;;;;;;5037233;28;20413;-40
2022/10/01 11:17:23;;;;;;;10.98;1.00;;;13.20;99.90;;;;;;5047939;28;20044;-41
2022/10/01 11:20:23;;;;;;;8.60;1.20;;;13.20;99.90;;;;;;5048524;28;20049;-41
2022/10/01 11:23:26;;;;;;;9.68;1.15;;;13.30;99.90;;;;;;5048070;28;20569;-40
2022/10/01 11:26:12;;;;;;;10.23;1.50;;;13.50;99.90;;;;;;5028626;28;20131;-40
2022/10/01 11:28:53;;;;;;;10.98;1.48;;;13.60;99.90;;;;;;5040928;28;20080;-40
2022/10/01 11:31:34;;;;;;;10.70;1.38;;;13.70;99.90;;;;;;5048171;28;20478;-40
2022/10/01 11:34:19;;;;;;;11.40;1.55;;;13.80;99.90;;;;;;5047801;28;20037;-40
2022/10/01 11:37:04;;;;;;;9.88;1.65;;;14.00;99.90;;;;;;5026323;28;20080;-40
2022/10/01 11:39:33;;;;;;;7.38;1.85;;;14.30;99.90;;;;;;5047894;28;20045;-41
2022/10/01 11:42:04;;;;;;;9.40;1.42;;;14.40;99.90;;;;;;5047229;28;20800;-42
2022/10/01 11:44:48;;;;;;;9.43;1.35;;;14.50;99.90;;;;;;5047748;28;20247;-42
2022/10/01 11:47:24;;;;;;;11.10;2.33;;;14.60;99.90;;;;;;5046909;28;20052;-41
2022/10/01 11:49:58;;;;;;;13.93;1.95;;;14.90;99.90;;;;;;5047205;28;20041;-41
2022/10/01 11:52:43;;;;;;;9.70;1.30;;;15.00;99.90;;;;;;5047517;28;20384;-42
2022/10/01 11:58:50;;;;;;;9.23;1.35;;;15.00;99.90;;;;;;5047325;28;20045;-41
2022/10/01 12:01:43;;;;;;;13.25;1.80;;;15.10;99.90;;;;;;5047688;28;20586;-43
2022/10/01 12:04:16;;;;;;;8.38;1.15;;;15.10;99.90;;;;;;5048155;28;20107;-41
2022/10/01 12:06:48;;;;;;;8.93;1.00;;;15.00;99.90;;;;;;5047676;28;20048;-41
2022/10/01 12:09:36;;;;;;;7.53;0.88;;;15.00;99.90;;;;;;5047318;28;20103;-41
2022/10/01 12:12:14;;;;;;;8.68;1.40;;;15.10;99.90;;;;;;5047370;28;20037;-41
2022/10/01 12:14:53;;;;;;;11.10;1.52;;;15.10;99.90;;;;;;5045396;28;20562;-41
2022/10/01 12:17:32;;;;;;;15.13;1.70;;;15.10;99.90;;;;;;5046839;28;20082;-42
2022/10/01 12:20:01;;;;;;;7.90;1.40;;;15.10;99.90;;;;;;5047370;28;20037;-41
2022/10/01 12:22:31;;;;;;;10.88;1.48;;;15.10;99.90;;;;;;5047375;28;20049;-41
2022/10/01 12:24:57;;;;;;;15.52;1.73;;;15.20;99.90;;;;;;5047503;28;20079;-41
2022/10/01 12:27:40;;;;;;;13.35;1.40;;;15.20;99.90;;;;;;5047476;28;20134;-41
2022/10/01 12:30:16;;;;;;;9.05;1.20;;;15.10;99.90;;;;;;5046575;28;20037;-43
2022/10/01 12:32:49;;;;;;;12.13;1.40;;;15.10;99.90;;;;;;5046224;28;20045;-40
2022/10/01 12:35:36;;;;;;;16.38;1.63;;;15.10;99.90;;;;;;5046443;28;20124;-41
2022/10/01 12:38:18;;;;;;;11.05;1.33;;;15.00;99.90;;;;;;5046739;28;20041;-41
2022/10/01 12:41:04;;;;;;;12.93;1.48;;;14.90;99.90;;;;;;5046808;28;20402;-41
2022/10/01 12:43:46;;;;;;;11.95;1.70;;;14.80;99.90;;;;;;5046545;28;20175;-41
2022/10/01 12:46:30;;;;;;;16.50;1.90;;;14.80;99.90;;;;;;5045780;28;20060;-41
2022/10/01 12:49:06;;;;;;;12.90;1.88;;;14.80;99.90;;;;;;5046267;28;20051;-41
2022/10/01 12:51:51;;;;;;;9.73;1.20;;;15.00;99.90;;;;;;5046235;28;20053;-41
2022/10/01 12:54:35;;;;;;;11.95;1.50;;;15.10;99.90;;;;;;5046069;28;20151;-43
2022/10/01 12:57:23;;;;;;;17.83;2.72;;;15.00;99.90;;;;;;5046381;28;20092;-41
2022/10/01 13:00:07;;;;;;;9.27;1.30;;;15.00;99.90;;;;;;5045807;28;20625;-41
2022/10/01 13:02:46;;;;;;;9.82;1.65;;;15.00;99.90;;;;;;5045828;28;20040;-41
2022/10/01 13:05:22;;;;;;;13.15;1.65;;;14.90;99.90;;;;;;5045765;28;20055;-42